more information


Meteosat more information blitzortung!


Radar lluvias  rain snow radar


Visita nuestra red de sitios de meteo:

Template documentation
and downloads

And another site



No particular awareness of the weather is required.    There are no Weather-warnings

Informes METAR proximidad


Warning: A non-numeric value encountered in /home/badameteo/www/weather28/metar/metarDisplay.php on line 166

Warning: A non-numeric value encountered in /home/badameteo/www/weather28/metar/metarDisplay.php on line 166
   
EHVK - Volkel Rnlafb, Netherlands
Distancia hasta la estación: SW 18 km
Actualización: 29-09-2022 13:17
Parcialmente nublado  
Parcialmente nublado  
   Viento: SSE 9.3 km/h
Viento: SSE 9.3 km/h
Temperatura: 14°C
Punto de rocío: 8°C
Humedad: 67%
Baromètro: 1002 hPa
Nublado: Parcialmente nublado
Visibilidad: More than 10 km
detalles de la nube: Parcialmente nublado 640.1 m,
Parcialmente nublado 792.5 m
EHVK 291117Z AUTO 16005KT 140V290 9999 BKN021 BKN026 14/08 Q1002 WHT NOSIG
EDLV - Niederrhein, Germany
Distancia hasta la estación: SE 25 km
Actualización: 29-09-2022 12:50
Parcialmente Nublado  
Parcialmente Nublado  
   Viento: S 7.4 km/h
Viento: S 7.4 km/h
Temperatura: 13°C
Punto de rocío: 8°C
Humedad: 72%
Baromètro: 1002 hPa
Nublado: Parcialmente Nublado
Visibilidad: More than 10 km
detalles de la nube: Nubes dispersas 518.2 m,
Parcialmente Nublado 640.1 m
EDLV 291050Z 18004KT 110V210 9999 FEW017 SCT021 13/08 Q1002
EHDL - Deelen Rnlafb, Netherlands
Distancia hasta la estación: N 35 km
Actualización: 29-09-2022 12:55
Despejado  
Despejado  
   Viento: varía 5.6 km/h
Viento: varía 5.6 km/h
Temperatura: 13°C
Punto de rocío: 7°C
Humedad: 67%
Baromètro: 1002 hPa
Nublado: Despejado
Visibilidad: More than 10 km
detalles de la nube: Despejado
EHDL 291055Z AUTO VRB03KT 9999 NCD 13/07 Q1002 BLU
EHEH - Eindhoven Rnlafb, Netherlands
Distancia hasta la estación: SW 48 km
Actualización: 29-09-2022 13:07
Nubes dispersas  
Nubes dispersas  
   Viento: varía 5.6 km/h
Viento: varía 5.6 km/h
Temperatura: 14°C
Punto de rocío: 9°C
Humedad: 72%
Baromètro: 1002 hPa
Nublado: Nubes dispersas
Visibilidad: More than 10 km
detalles de la nube: Nubes dispersas 640.1 m
EHEH 291107Z AUTO VRB03KT 9999 FEW021/// 14/09 Q1002 BLU NOSIG
EHGR - Gilze-Rijen Rnla, Netherlands
Distancia hasta la estación: WSW 70 km
Actualización: 29-09-2022 12:55
Despejado  
Despejado  
   Viento: SSW 5.6 km/h
Viento: SSW 5.6 km/h
Temperatura: 14°C
Punto de rocío: 9°C
Humedad: 72%
Baromètro: 1002 hPa
Nublado: Despejado
Visibilidad: More than 10 km
detalles de la nube: Despejado
EHGR 291055Z AUTO 20003KT 060V190 9999 NCD 14/09 Q1002 BLU TEMPO SCT018
EBBL - Kleine-Brogel(Ba, Belgium
Distancia hasta la estación: SSW 71 km
Actualización: 29-09-2022 11:55
NO actual
Parcialmente Nublado  
Parcialmente Nublado  
   Viento: S 5.6 km/h
Viento: S 5.6 km/h
Temperatura: 13°C
Punto de rocío: 7°C
Humedad: 67%
Baromètro: 1002 hPa
Nublado: Parcialmente Nublado
Visibilidad: More than 10 km
detalles de la nube: Nubes dispersas 762 m,
Parcialmente Nublado 8534.4 m
EBBL 290955Z 18003KT 9999 FEW025 SCT280 13/07 Q1002 BLU BLU

Guión original por  Saratoga-weather.org Adaptado para la plantilla por  Weerstation Leuven

Usted encontrará nuestra información del tiempo también en:

UK Metoffice

European Weather Network

WeatherCloud

Iberian Peninsula Weather Network

AWEKAS

Citizen Weather Observer Program (CWOP)

HAMweather, WeatherForYou, PWS Weather

Equipo utilizado:

Weather-station
Davis Vantage Vue

Weather-program
Weather Display

Weather-server
My Computer

Proveedor
My provider

Davis Vantage Vue

Weather Display

My Computer

My provider